createdAt,value
2022-09-15T02:45:05.546Z,94.17
2022-09-15T02:46:05.718Z,94.42
2022-09-15T02:47:05.518Z,94.21
2022-09-15T02:48:05.632Z,94.68
2022-09-15T02:49:05.740Z,94.21
2022-09-15T02:50:05.566Z,94.68
2022-09-15T02:51:05.486Z,94.78
2022-09-15T02:52:05.605Z,94.68
2022-09-15T02:53:05.537Z,94.37
2022-09-15T02:54:05.545Z,94.17
2022-09-15T02:55:06.895Z,94.02
2022-09-15T02:56:06.645Z,94.07
2022-09-15T02:57:06.858Z,94.07
2022-09-15T02:58:06.969Z,93.96
2022-09-15T02:59:07.008Z,93.66
2022-09-15T03:00:07.131Z,93.15
2022-09-15T03:01:06.910Z,93.55
2022-09-15T03:02:06.708Z,93.51
2022-09-15T03:03:06.661Z,93.10
2022-09-15T03:04:06.613Z,93.21
2022-09-15T03:05:08.072Z,93.10
2022-09-15T03:06:06.622Z,92.80
2022-09-15T03:07:07.123Z,92.80
2022-09-15T03:08:06.601Z,92.40
2022-09-15T03:09:07.682Z,92.80
2022-09-15T03:10:06.636Z,92.80
2022-09-15T03:11:07.086Z,92.60
2022-09-15T03:12:07.581Z,92.60
2022-09-15T03:13:06.551Z,92.19
2022-09-15T03:14:06.996Z,92.29
2022-09-15T03:15:06.675Z,93.10
2022-09-15T03:16:06.643Z,92.49
2022-09-15T03:17:06.492Z,92.54
2022-09-15T03:18:06.569Z,92.60
2022-09-15T03:19:06.708Z,92.44
2022-09-15T03:20:07.425Z,92.19
2022-09-15T03:21:06.466Z,92.29
2022-09-15T03:22:06.474Z,92.60
2022-09-15T03:23:06.562Z,92.29
2022-09-15T03:24:06.375Z,92.19
2022-09-15T03:25:06.430Z,92.49
2022-09-15T03:26:06.552Z,92.29
2022-09-15T03:27:06.367Z,91.78
2022-09-15T03:28:06.336Z,91.64
2022-09-15T03:29:06.419Z,91.58
2022-09-15T03:30:06.360Z,92.14
2022-09-15T03:31:06.447Z,90.86
2022-09-15T03:32:06.347Z,90.66
2022-09-15T03:33:07.392Z,90.56
2022-09-15T03:34:06.306Z,90.42
2022-09-15T03:35:06.284Z,90.36
2022-09-15T03:36:06.438Z,90.66
2022-09-15T03:37:07.123Z,90.36
2022-09-15T03:38:06.539Z,90.56
2022-09-15T03:39:06.319Z,90.16
2022-09-15T03:40:07.021Z,90.56
2022-09-15T03:41:06.326Z,90.77
2022-09-15T03:42:06.367Z,89.95
2022-09-15T03:43:06.902Z,90.46
2022-09-15T03:44:06.885Z,90.46
2022-09-15T03:45:06.253Z,90.56
2022-09-15T03:46:07.598Z,90.66
2022-09-15T03:47:06.182Z,90.56
2022-09-15T03:48:06.668Z,90.56
2022-09-15T03:49:06.284Z,90.50
2022-09-15T03:50:06.602Z,91.78
2022-09-15T03:51:06.559Z,91.68
2022-09-15T03:52:06.932Z,91.78
2022-09-15T03:53:06.279Z,91.27
2022-09-15T03:54:06.093Z,91.48
2022-09-15T03:55:06.076Z,91.62
2022-09-15T03:56:06.856Z,91.11
2022-09-15T03:57:06.052Z,91.38
2022-09-15T03:58:06.278Z,90.77
2022-09-15T03:59:06.105Z,90.70
2022-09-15T04:00:06.009Z,90.60
2022-09-15T04:01:06.070Z,90.50
2022-09-15T04:02:05.981Z,91.58
2022-09-15T04:03:06.065Z,91.17
2022-09-15T04:04:05.958Z,91.62
2022-09-15T04:05:06.247Z,92.03
2022-09-15T04:06:05.967Z,91.88
2022-09-15T04:07:06.007Z,91.68
2022-09-15T04:08:05.959Z,91.58
2022-09-15T04:09:05.934Z,91.72
2022-09-15T04:10:05.870Z,91.83
2022-09-15T04:11:05.901Z,91.93
2022-09-15T04:12:05.986Z,91.88
2022-09-15T04:13:05.868Z,91.78
2022-09-15T04:14:05.929Z,91.93
2022-09-15T04:15:05.860Z,91.99
2022-09-15T04:16:06.060Z,91.78
2022-09-15T04:17:06.754Z,91.48
2022-09-15T04:18:05.857Z,91.48
2022-09-15T04:19:05.942Z,91.48
2022-09-15T04:20:05.786Z,91.38
2022-09-15T04:21:05.803Z,91.17
2022-09-15T04:22:05.798Z,91.78
2022-09-15T04:23:05.793Z,91.88
2022-09-15T04:24:05.851Z,92.33
2022-09-15T04:25:05.775Z,92.64
2022-09-15T04:26:05.755Z,92.44
2022-09-15T04:27:05.852Z,92.09
2022-09-15T04:28:05.863Z,91.83
2022-09-15T04:29:05.793Z,92.13
2022-09-15T04:30:05.755Z,92.23
2022-09-15T04:31:05.795Z,92.79
2022-09-15T04:32:05.738Z,92.48
2022-09-15T04:33:05.715Z,92.83
2022-09-15T04:34:05.751Z,93.44
2022-09-15T04:35:06.287Z,94.20
2022-09-15T04:36:05.616Z,93.95
2022-09-15T04:37:05.770Z,94.20
2022-09-15T04:38:05.712Z,94.50
2022-09-15T04:39:05.726Z,94.81
2022-09-15T04:40:05.667Z,94.60
2022-09-15T04:41:05.683Z,94.71
2022-09-15T04:42:05.948Z,94.20
2022-09-15T04:43:05.812Z,94.46
2022-09-15T04:44:05.648Z,94.20
2022-09-15T04:45:05.630Z,94.26
2022-09-15T04:46:05.593Z,94.09
2022-09-15T04:47:05.689Z,94.26
2022-09-15T04:48:05.570Z,93.38
2022-09-15T04:49:06.385Z,94.34
2022-09-15T04:50:05.609Z,94.34
2022-09-15T04:51:05.579Z,94.45
2022-09-15T04:52:09.484Z,94.38
2022-09-15T04:53:06.653Z,94.70
2022-09-15T04:54:05.488Z,95.10
2022-09-15T04:55:05.431Z,95.51
2022-09-15T04:56:05.525Z,96.17
2022-09-15T04:57:05.372Z,96.22
2022-09-15T04:58:05.772Z,96.58
2022-09-15T04:59:05.577Z,95.41
2022-09-15T05:00:05.518Z,96.17
2022-09-15T05:01:05.575Z,96.58
2022-09-15T05:02:05.856Z,96.78
2022-09-15T05:03:08.620Z,96.78
2022-09-15T05:04:06.696Z,96.88
2022-09-15T05:05:05.580Z,96.98
2022-09-15T05:06:05.448Z,97.08
2022-09-15T05:07:05.435Z,97.14
2022-09-15T05:08:05.510Z,97.04
2022-09-15T05:09:09.748Z,96.94
2022-09-15T05:10:07.716Z,97.04
2022-09-15T05:11:05.706Z,96.73
2022-09-15T05:12:05.420Z,96.12
2022-09-15T05:13:05.262Z,96.12
2022-09-15T05:14:05.310Z,95.92
2022-09-15T05:15:05.565Z,95.72
2022-09-15T05:16:05.614Z,95.87
2022-09-15T05:17:05.596Z,96.12
2022-09-15T05:18:06.923Z,95.97
2022-09-15T05:19:06.639Z,96.53
2022-09-15T05:20:05.765Z,96.08
2022-09-15T05:21:06.128Z,96.08
2022-09-15T05:22:06.006Z,95.97
2022-09-15T05:23:05.340Z,96.79
2022-09-15T05:24:05.113Z,96.75
2022-09-15T05:25:05.735Z,96.48
2022-09-15T05:26:06.450Z,96.59
2022-09-15T05:27:05.651Z,96.59
2022-09-15T05:28:05.752Z,96.75
2022-09-15T05:29:05.306Z,96.34
2022-09-15T05:30:34.837Z,96.03
2022-09-15T05:31:07.196Z,95.87
2022-09-15T05:32:05.254Z,96.08
2022-09-15T05:33:05.214Z,96.18
2022-09-15T05:34:05.340Z,95.87
2022-09-15T05:35:05.354Z,95.93
2022-09-15T05:36:05.385Z,95.87
2022-09-15T05:37:05.135Z,95.81
2022-09-15T05:38:05.130Z,96.08
2022-09-15T05:39:05.170Z,96.48
2022-09-15T05:40:08.463Z,96.69
2022-09-15T05:41:06.202Z,96.54
2022-09-15T05:42:05.417Z,96.48
2022-09-15T05:43:05.117Z,96.03
2022-09-15T05:44:05.366Z,95.93
2022-09-15T05:45:05.098Z,96.08
2022-09-15T05:46:05.277Z,96.18
2022-09-15T05:47:05.277Z,95.87
2022-09-15T05:48:05.123Z,96.08
2022-09-15T05:49:05.162Z,95.87
2022-09-15T05:50:05.225Z,95.92
2022-09-15T05:51:05.174Z,96.48
2022-09-15T05:52:05.067Z,96.69
2022-09-15T05:53:05.303Z,96.79
2022-09-15T05:54:06.121Z,96.64
2022-09-15T05:55:05.101Z,96.34
2022-09-15T05:56:06.298Z,96.34
2022-09-15T05:57:05.127Z,96.34
2022-09-15T05:58:05.649Z,95.42
2022-09-15T05:59:05.319Z,95.68
2022-09-15T06:00:05.080Z,95.68
2022-09-15T06:01:05.301Z,95.58
2022-09-15T06:02:05.701Z,95.28
2022-09-15T06:03:06.910Z,94.72
2022-09-15T06:04:04.899Z,95.23
2022-09-15T06:05:09.950Z,94.72
2022-09-15T06:06:07.239Z,94.11
2022-09-15T06:07:05.737Z,94.42
2022-09-15T06:08:05.111Z,94.21
2022-09-15T06:09:05.350Z,94.01
2022-09-15T06:10:05.226Z,94.31
2022-09-15T06:11:05.458Z,94.01
2022-09-15T06:12:05.177Z,94.31
2022-09-15T06:13:04.749Z,94.11
2022-09-15T06:14:05.618Z,94.07
2022-09-15T06:15:04.698Z,93.35
2022-09-15T06:16:04.904Z,93.35
2022-09-15T06:17:05.082Z,93.05
2022-09-15T06:18:04.858Z,93.05
2022-09-15T06:19:04.649Z,93.15
2022-09-15T06:20:04.908Z,92.74
2022-09-15T06:21:04.758Z,92.60
2022-09-15T06:22:05.628Z,92.19
2022-09-15T06:23:04.717Z,92.90
2022-09-15T06:24:05.026Z,91.58
2022-09-15T06:25:04.744Z,91.68
2022-09-15T06:26:04.613Z,91.53
2022-09-15T06:27:04.832Z,91.84
2022-09-15T06:28:04.583Z,91.64
2022-09-15T06:29:04.539Z,90.52
2022-09-15T06:30:04.716Z,91.43
2022-09-15T06:31:04.946Z,91.64
2022-09-15T06:32:04.896Z,92.14
2022-09-15T06:33:04.614Z,91.09
2022-09-15T06:34:04.501Z,90.48
2022-09-15T06:35:04.645Z,90.78
2022-09-15T06:36:04.851Z,91.90
2022-09-15T06:37:04.649Z,91.19
2022-09-15T06:38:04.589Z,90.48
2022-09-15T06:39:04.966Z,90.37
2022-09-15T06:40:04.582Z,90.33
2022-09-15T06:41:04.520Z,90.13
2022-09-15T06:42:05.772Z,90.13
2022-09-15T06:43:05.545Z,90.44
2022-09-15T06:44:04.829Z,90.74
2022-09-15T06:45:04.677Z,90.74
2022-09-15T06:46:04.357Z,90.78
2022-09-15T06:47:04.552Z,91.09
2022-09-15T06:48:23.337Z,91.39
2022-09-15T06:49:06.417Z,92.77
2022-09-15T06:50:04.795Z,91.86
2022-09-15T06:51:04.275Z,91.49
2022-09-15T06:52:04.260Z,92.71
2022-09-15T06:53:04.346Z,92.51
2022-09-15T06:54:04.423Z,92.30
2022-09-15T06:55:04.299Z,92.65
2022-09-15T06:56:04.250Z,92.61
2022-09-15T06:57:04.328Z,92.35
2022-09-15T06:58:04.247Z,92.55
2022-09-15T06:59:04.323Z,92.65
2022-09-15T07:00:04.207Z,94.12
2022-09-15T07:01:04.328Z,94.08
2022-09-15T07:02:05.299Z,93.98
2022-09-15T07:03:05.527Z,93.16
2022-09-15T07:04:04.357Z,93.16
2022-09-15T07:05:04.210Z,92.45
2022-09-15T07:06:05.541Z,92.45
2022-09-15T07:07:04.259Z,93.06
2022-09-15T07:08:04.245Z,93.02
2022-09-15T07:09:04.174Z,94.08
2022-09-15T07:10:04.229Z,94.18
2022-09-15T07:11:03.987Z,95.09
2022-09-15T07:12:04.288Z,95.00
2022-09-15T07:13:04.473Z,94.95
2022-09-15T07:14:04.143Z,94.54
2022-09-15T07:15:05.213Z,94.59
2022-09-15T07:16:04.034Z,93.87
2022-09-15T07:17:04.257Z,93.98
2022-09-15T07:18:04.158Z,94.08
2022-09-15T07:19:04.067Z,94.08
2022-09-15T07:20:04.420Z,94.18
2022-09-15T07:21:04.179Z,94.89
2022-09-15T07:22:04.104Z,95.09
2022-09-15T07:23:03.960Z,94.59
2022-09-15T07:24:07.360Z,94.89
2022-09-15T07:25:05.057Z,94.38
2022-09-15T07:26:04.345Z,94.59
2022-09-15T07:27:04.382Z,94.69
2022-09-15T07:28:04.047Z,94.18
2022-09-15T07:29:04.183Z,93.98
2022-09-15T07:30:04.226Z,93.98
2022-09-15T07:31:04.095Z,94.12
2022-09-15T07:32:04.218Z,94.18
2022-09-15T07:33:03.900Z,94.69
2022-09-15T07:34:05.096Z,95.05
2022-09-15T07:35:03.943Z,94.48
2022-09-15T07:36:04.107Z,95.05
2022-09-15T07:37:04.277Z,94.74
2022-09-15T07:38:04.679Z,93.89
2022-09-15T07:39:03.976Z,93.12
2022-09-15T07:40:03.878Z,92.41
2022-09-15T07:41:04.059Z,92.41
2022-09-15T07:42:03.952Z,91.90
2022-09-15T07:43:04.020Z,92.57
2022-09-15T07:44:03.970Z,93.79
2022-09-15T07:45:04.082Z,94.09
2022-09-15T07:46:04.211Z,94.09
2022-09-15T07:47:03.810Z,93.89
2022-09-15T07:48:03.830Z,92.67
2022-09-15T07:49:03.837Z,92.87
2022-09-15T07:50:03.758Z,92.57
2022-09-15T07:51:03.820Z,92.52
2022-09-15T07:52:03.730Z,92.42
2022-09-15T07:53:03.968Z,90.59
2022-09-15T07:54:03.815Z,90.09
2022-09-15T07:55:03.896Z,91.91
2022-09-15T07:56:03.759Z,92.42
2022-09-15T07:57:04.541Z,91.51
2022-09-15T07:58:03.582Z,91.36
2022-09-15T07:59:03.545Z,90.45
2022-09-15T08:00:03.611Z,89.74
2022-09-15T08:01:03.670Z,90.61
2022-09-15T08:02:03.819Z,89.59
2022-09-15T08:03:03.625Z,89.29
2022-09-15T08:04:04.470Z,89.90
2022-09-15T08:05:03.816Z,89.96
2022-09-15T08:06:03.662Z,87.93
2022-09-15T08:07:03.679Z,88.34
2022-09-15T08:08:03.447Z,88.34
2022-09-15T08:09:03.876Z,87.43
2022-09-15T08:10:03.516Z,88.60
2022-09-15T08:11:03.586Z,88.20
2022-09-15T08:12:03.513Z,88.64
2022-09-15T08:13:04.124Z,88.29
2022-09-15T08:14:03.392Z,87.79
2022-09-15T08:15:03.754Z,87.73
2022-09-15T08:16:03.372Z,90.22
2022-09-15T08:17:11.239Z,90.32
2022-09-15T08:18:04.376Z,89.41
2022-09-15T08:19:03.467Z,89.81
2022-09-15T08:20:03.368Z,89.41
2022-09-15T08:21:03.389Z,89.81
2022-09-15T08:22:03.329Z,87.69
2022-09-15T08:23:03.241Z,89.17
2022-09-15T08:24:03.352Z,87.74
2022-09-15T08:25:04.200Z,87.10
2022-09-15T08:26:03.287Z,86.90
2022-09-15T08:27:03.345Z,87.10
2022-09-15T08:28:03.224Z,86.55
2022-09-15T08:29:03.247Z,85.13
2022-09-15T08:30:03.252Z,83.51
2022-09-15T08:31:03.458Z,82.81
2022-09-15T08:32:03.175Z,81.39
2022-09-15T08:33:03.199Z,81.65
2022-09-15T08:34:04.089Z,81.39
2022-09-15T08:35:03.163Z,81.62
2022-09-15T08:36:04.283Z,80.91
2022-09-15T08:37:03.150Z,80.26
2022-09-15T08:38:03.163Z,79.62
2022-09-15T08:39:03.177Z,78.00
2022-09-15T08:40:03.203Z,77.39
2022-09-15T08:41:03.196Z,77.97
2022-09-15T08:42:03.066Z,77.86
2022-09-15T08:43:03.097Z,78.37
2022-09-15T08:44:03.096Z,79.08
2022-09-15T08:45:03.076Z,77.60
2022-09-15T08:46:03.271Z,79.08
2022-09-15T08:47:03.074Z,81.65
2022-09-15T08:48:03.050Z,79.19
2022-09-15T08:49:03.299Z,78.85
2022-09-15T08:50:04.127Z,78.95
2022-09-15T08:51:03.056Z,80.57
2022-09-15T08:52:02.998Z,80.36
2022-09-15T08:53:03.761Z,80.06
2022-09-15T08:54:02.992Z,78.71
2022-09-15T08:55:02.955Z,78.91
2022-09-15T08:56:04.633Z,80.46
2022-09-15T08:57:03.039Z,81.62
2022-09-15T08:58:02.958Z,80.54
2022-09-15T08:59:02.901Z,82.90
2022-09-15T09:00:03.766Z,81.12
2022-09-15T09:01:02.877Z,82.64
2022-09-15T09:02:03.006Z,83.76
2022-09-15T09:03:02.995Z,85.31
2022-09-15T09:04:02.887Z,85.01
2022-09-15T09:05:02.866Z,86.02
2022-09-15T09:06:02.869Z,86.22
2022-09-15T09:07:02.870Z,84.30
2022-09-15T09:08:02.858Z,86.33
2022-09-15T09:09:02.854Z,85.25
2022-09-15T09:10:02.824Z,84.70
2022-09-15T09:11:02.844Z,85.31
2022-09-15T09:12:02.781Z,85.21
2022-09-15T09:13:02.796Z,87.18
2022-09-15T09:14:02.776Z,85.93
2022-09-15T09:15:02.845Z,85.05
2022-09-15T09:16:02.848Z,86.27
2022-09-15T09:17:02.710Z,86.47
2022-09-15T09:18:02.900Z,86.16
2022-09-15T09:19:02.691Z,85.76
2022-09-15T09:20:02.735Z,86.07
2022-09-15T09:21:02.711Z,85.66
2022-09-15T09:22:02.744Z,85.25
2022-09-15T09:23:02.666Z,85.31
2022-09-15T09:24:02.731Z,85.21
2022-09-15T09:25:08.559Z,85.62
2022-09-15T09:26:08.625Z,85.72
2022-09-15T09:27:03.710Z,86.57
2022-09-15T09:28:02.642Z,86.73
2022-09-15T09:29:02.637Z,85.36
2022-09-15T09:30:03.037Z,84.30
2022-09-15T09:31:02.848Z,83.15
2022-09-15T09:32:02.666Z,83.86
2022-09-15T09:33:02.566Z,84.27
2022-09-15T09:34:02.541Z,84.06
2022-09-15T09:35:02.585Z,83.35
2022-09-15T09:36:02.601Z,82.70
2022-09-15T09:37:02.704Z,82.16
2022-09-15T09:38:02.535Z,81.76
2022-09-15T09:39:02.542Z,81.45
2022-09-15T09:40:02.670Z,81.51
2022-09-15T09:41:02.892Z,81.11
2022-09-15T09:42:02.529Z,80.40
2022-09-15T09:43:02.474Z,80.77
2022-09-15T09:44:02.653Z,79.96
2022-09-15T09:45:02.501Z,80.43
2022-09-15T09:46:02.737Z,80.66
2022-09-15T09:47:02.529Z,78.50
2022-09-15T09:48:02.527Z,76.59
2022-09-15T09:49:02.486Z,78.10
2022-09-15T09:50:02.456Z,76.79
2022-09-15T09:51:02.519Z,77.90
2022-09-15T09:52:02.399Z,78.50
2022-09-15T09:53:03.299Z,77.70
2022-09-15T09:54:02.357Z,77.39
2022-09-15T09:55:02.383Z,77.26
2022-09-15T09:56:02.446Z,76.48
2022-09-15T09:57:02.366Z,76.69
2022-09-15T09:58:02.418Z,77.15
2022-09-15T09:59:02.343Z,77.26
2022-09-15T10:00:02.391Z,76.65
2022-09-15T10:01:02.353Z,76.95
2022-09-15T10:02:02.641Z,77.02
2022-09-15T10:03:02.265Z,77.15
2022-09-15T10:04:02.264Z,76.75
2022-09-15T10:05:02.288Z,76.95
2022-09-15T10:06:02.373Z,76.35
2022-09-15T10:07:02.244Z,76.15
2022-09-15T10:08:02.341Z,76.25
2022-09-15T10:09:03.104Z,76.39
2022-09-15T10:10:02.230Z,76.45
2022-09-15T10:11:02.268Z,76.59
2022-09-15T10:12:02.217Z,76.28
2022-09-15T10:13:02.157Z,75.57
2022-09-15T10:14:03.287Z,74.46
2022-09-15T10:15:02.182Z,75.68
2022-09-15T10:16:03.698Z,74.77
2022-09-15T10:17:02.144Z,74.87
2022-09-15T10:18:02.293Z,74.97
2022-09-15T10:19:02.256Z,75.78
2022-09-15T10:20:02.170Z,74.53
2022-09-15T10:21:02.238Z,74.57
2022-09-15T10:22:02.168Z,72.81
2022-09-15T10:23:02.133Z,74.43
2022-09-15T10:24:02.106Z,74.93
2022-09-15T10:25:02.232Z,74.49
2022-09-15T10:26:02.325Z,74.80
2022-09-15T10:27:02.078Z,75.20
2022-09-15T10:28:02.088Z,75.20
2022-09-15T10:29:02.143Z,73.08
2022-09-15T10:30:02.072Z,73.79
2022-09-15T10:31:02.178Z,74.60
2022-09-15T10:32:02.108Z,74.40
2022-09-15T10:33:01.985Z,72.78
2022-09-15T10:34:01.966Z,72.95
2022-09-15T10:35:01.999Z,72.75
2022-09-15T10:36:01.949Z,72.58
2022-09-15T10:37:02.383Z,69.15
2022-09-15T10:38:01.975Z,66.52
2022-09-15T10:39:01.957Z,67.33
2022-09-15T10:40:01.959Z,69.95
2022-09-15T10:41:01.947Z,70.36
2022-09-15T10:42:01.965Z,69.45
2022-09-15T10:43:01.899Z,67.76
2022-09-15T10:44:01.937Z,67.93
2022-09-15T10:45:01.922Z,66.82
2022-09-15T10:46:01.956Z,66.82
2022-09-15T10:47:01.891Z,67.63
2022-09-15T10:48:01.923Z,67.63
2022-09-15T10:49:01.894Z,66.62
2022-09-15T10:50:01.835Z,66.93
2022-09-15T10:51:01.779Z,66.69
2022-09-15T10:52:01.839Z,65.28
2022-09-15T10:53:02.587Z,65.28
2022-09-15T10:54:01.766Z,64.37
2022-09-15T10:55:01.752Z,64.27
2022-09-15T10:56:01.758Z,63.56
2022-09-15T10:57:01.775Z,64.67
2022-09-15T10:58:02.784Z,65.55
2022-09-15T10:59:01.738Z,62.12
2022-09-15T11:00:01.788Z,62.93
2022-09-15T11:01:01.788Z,62.90
2022-09-15T11:02:02.003Z,62.19
2022-09-15T11:03:01.709Z,62.97
2022-09-15T11:04:01.679Z,63.27
2022-09-15T11:05:01.850Z,63.17
2022-09-15T11:06:01.670Z,63.98
2022-09-15T11:07:01.862Z,63.04
2022-09-15T11:08:01.643Z,63.14
2022-09-15T11:09:01.862Z,63.47
2022-09-15T11:10:01.637Z,61.66
2022-09-15T11:11:01.603Z,63.17
2022-09-15T11:12:01.806Z,61.53
2022-09-15T11:13:01.613Z,62.04
2022-09-15T11:14:01.697Z,61.23
2022-09-15T11:15:01.680Z,60.19
2022-09-15T11:16:01.615Z,59.79
2022-09-15T11:17:01.647Z,58.55
2022-09-15T11:18:01.548Z,59.46
2022-09-15T11:19:01.575Z,58.83
2022-09-15T11:20:01.524Z,56.82
2022-09-15T11:21:02.331Z,57.32
2022-09-15T11:22:01.599Z,55.41
2022-09-15T11:23:01.654Z,58.62
2022-09-15T11:24:01.608Z,56.34
2022-09-15T11:25:01.475Z,57.45
2022-09-15T11:26:01.499Z,59.76
2022-09-15T11:27:01.542Z,57.55
2022-09-15T11:28:02.297Z,55.74
2022-09-15T11:29:01.418Z,55.91
2022-09-15T11:30:02.054Z,57.59
2022-09-15T11:31:01.450Z,56.99
2022-09-15T11:33:01.425Z,57.09
2022-09-15T11:34:01.451Z,56.59
2022-09-15T11:35:02.041Z,55.88
2022-09-15T11:36:01.454Z,55.26
2022-09-15T11:37:01.538Z,56.26
2022-09-15T11:38:01.531Z,55.83
2022-09-15T11:39:01.453Z,57.06
2022-09-15T11:40:01.428Z,59.98
2022-09-15T11:41:01.557Z,57.09
2022-09-15T11:42:02.210Z,56.31
2022-09-15T11:43:01.244Z,56.89
2022-09-15T11:44:01.295Z,55.55
2022-09-15T11:45:01.296Z,56.23
2022-09-15T11:46:02.187Z,55.86
2022-09-15T11:47:01.453Z,59.83
2022-09-15T11:48:01.219Z,57.32
2022-09-15T11:49:01.855Z,55.79
2022-09-15T11:50:01.494Z,56.86
2022-09-15T11:51:01.399Z,55.91
2022-09-15T11:52:01.619Z,57.04
2022-09-15T11:53:01.306Z,59.79
2022-09-15T11:54:01.178Z,56.54
2022-09-15T11:55:01.234Z,56.14
2022-09-15T11:56:01.785Z,59.23
2022-09-15T11:57:01.230Z,57.90
2022-09-15T11:58:01.249Z,56.59
2022-09-15T11:59:01.176Z,56.26
2022-09-15T12:00:01.308Z,55.76
2022-09-15T12:01:01.141Z,56.16
2022-09-15T12:02:01.141Z,56.86
2022-09-15T12:03:01.139Z,57.19
2022-09-15T12:04:01.227Z,58.70
2022-09-15T12:05:01.966Z,57.39
2022-09-15T12:06:01.110Z,55.28
2022-09-15T12:07:01.252Z,55.38
2022-09-15T12:08:00.999Z,56.51
2022-09-15T12:09:01.020Z,56.24
2022-09-15T12:10:01.031Z,56.24
2022-09-15T12:11:01.198Z,56.24
2022-09-15T12:12:01.828Z,55.33
2022-09-15T12:13:01.085Z,56.34
2022-09-15T12:14:01.135Z,58.15
2022-09-15T12:15:00.977Z,54.96
2022-09-15T12:16:01.038Z,55.26
2022-09-15T12:17:01.001Z,55.87
2022-09-15T12:18:06.424Z,57.50
2022-09-15T12:19:01.990Z,57.17
2022-09-15T12:20:00.913Z,57.00
2022-09-15T12:21:01.098Z,55.89
2022-09-15T12:22:00.943Z,56.47
2022-09-15T12:23:00.952Z,57.40
2022-09-15T12:24:01.089Z,58.58
2022-09-15T12:25:01.410Z,56.47
2022-09-15T12:26:01.897Z,55.66
2022-09-15T12:27:00.931Z,55.76
2022-09-15T12:28:01.517Z,56.24
2022-09-15T12:29:00.926Z,56.64
2022-09-15T12:30:00.963Z,57.28
2022-09-15T12:31:00.856Z,56.34
2022-09-15T12:32:00.872Z,55.43
2022-09-15T12:33:01.882Z,55.76
2022-09-15T12:34:00.810Z,55.87
2022-09-15T12:35:00.800Z,55.76
2022-09-15T12:36:00.745Z,56.87
2022-09-15T12:38:00.804Z,55.56
2022-09-15T12:39:00.821Z,57.28
2022-09-15T12:40:00.785Z,57.57
2022-09-15T12:41:00.730Z,54.55
2022-09-15T12:42:00.655Z,53.98
2022-09-15T12:43:00.688Z,55.49
2022-09-15T12:44:00.714Z,55.59
2022-09-15T12:45:00.730Z,56.20
2022-09-15T12:46:00.814Z,55.79
2022-09-15T12:47:00.677Z,56.02
2022-09-15T12:48:00.667Z,55.89
2022-09-15T12:49:00.783Z,56.22
2022-09-15T12:50:00.604Z,57.32
2022-09-15T12:51:00.598Z,56.32
2022-09-15T12:52:01.198Z,56.22
2022-09-15T12:53:00.666Z,58.51
2022-09-15T12:54:00.542Z,57.43
2022-09-15T12:55:00.550Z,56.32
2022-09-15T12:56:00.619Z,55.94
2022-09-15T12:57:00.570Z,57.12
2022-09-15T12:58:00.540Z,57.35
2022-09-15T12:59:04.576Z,58.26
2022-09-15T13:00:01.551Z,58.47
2022-09-15T13:01:17.683Z,57.38
2022-09-15T13:02:02.527Z,57.58
2022-09-15T13:03:00.671Z,57.10
2022-09-15T13:04:00.480Z,57.41
2022-09-15T13:05:01.477Z,56.60
2022-09-15T13:06:00.464Z,58.82
2022-09-15T13:07:00.571Z,57.54
2022-09-15T13:08:00.368Z,59.86
2022-09-15T13:09:00.346Z,60.36
2022-09-15T13:10:00.420Z,60.16
2022-09-15T13:11:00.485Z,60.36
2022-09-15T13:12:00.446Z,59.96
2022-09-15T13:13:00.361Z,61.47
2022-09-15T13:14:00.394Z,61.51
2022-09-15T13:15:00.432Z,61.88
2022-09-15T13:16:00.395Z,62.08
2022-09-15T13:17:00.367Z,61.98
2022-09-15T13:18:00.405Z,61.88
2022-09-15T13:19:00.374Z,61.88
2022-09-15T13:20:00.276Z,60.77
2022-09-15T13:21:00.290Z,61.07
2022-09-15T13:22:00.395Z,59.86
2022-09-15T13:23:00.293Z,59.96
2022-09-15T13:24:00.334Z,60.06
2022-09-15T13:25:01.578Z,60.46
2022-09-15T13:26:01.314Z,59.93
2022-09-15T13:27:00.242Z,60.24
2022-09-15T13:28:00.528Z,59.73
2022-09-15T13:29:00.224Z,59.70
2022-09-15T13:30:00.211Z,59.80
2022-09-15T13:31:00.351Z,60.21
2022-09-15T13:32:00.197Z,59.70
2022-09-15T13:33:00.142Z,58.80
2022-09-15T13:35:08.303Z,59.07
2022-09-15T13:36:01.134Z,59.47
2022-09-15T13:38:06.892Z,58.67
2022-09-15T13:39:02.192Z,59.34
2022-09-15T13:40:00.266Z,57.93
2022-09-15T13:41:00.077Z,56.92
2022-09-15T13:42:00.174Z,56.52
2022-09-15T13:43:00.050Z,57.73
2022-09-15T13:44:00.144Z,58.87
2022-09-15T13:45:00.082Z,58.06
2022-09-15T13:46:00.099Z,58.36
2022-09-15T13:47:00.153Z,57.56
2022-09-15T13:48:00.099Z,57.63
2022-09-15T13:49:00.066Z,57.65
2022-09-15T13:50:00.014Z,58.87
2022-09-15T13:50:59.986Z,58.74
2022-09-15T13:52:00.035Z,59.34
2022-09-15T13:53:00.033Z,57.53
2022-09-15T13:54:00.728Z,56.92
2022-09-15T13:54:59.933Z,57.32
2022-09-15T13:56:00.076Z,57.35
2022-09-15T13:56:59.940Z,58.56
2022-09-15T13:59:13.716Z,58.82
2022-09-15T14:00:01.897Z,60.53
2022-09-15T14:00:59.959Z,57.31
2022-09-15T14:02:00.020Z,57.81
2022-09-15T14:02:59.846Z,62.76
2022-09-15T14:03:59.869Z,60.03
2022-09-15T14:04:59.885Z,60.64
2022-09-15T14:05:59.839Z,61.95
2022-09-15T14:07:01.090Z,61.35
2022-09-15T14:08:01.495Z,60.74
2022-09-15T14:08:59.796Z,60.21
2022-09-15T14:09:59.921Z,60.64
2022-09-15T14:10:59.789Z,62.02
2022-09-15T14:11:59.792Z,61.61
2022-09-15T14:12:59.781Z,59.60
2022-09-15T14:13:59.826Z,59.37
2022-09-15T14:14:59.749Z,61.92
2022-09-15T14:15:59.774Z,59.93
2022-09-15T14:16:59.931Z,60.06
2022-09-15T14:17:59.775Z,60.87
2022-09-15T14:18:59.708Z,60.87
2022-09-15T14:19:59.771Z,59.02
2022-09-15T14:20:59.934Z,59.42
2022-09-15T14:21:59.656Z,59.00
2022-09-15T14:22:59.672Z,58.59
2022-09-15T14:24:00.329Z,56.98
2022-09-15T14:24:59.682Z,59.63
2022-09-15T14:25:59.676Z,58.69
2022-09-15T14:26:59.676Z,59.60
2022-09-15T14:27:59.699Z,60.71
2022-09-15T14:28:59.554Z,59.60
2022-09-15T14:29:59.631Z,59.22
2022-09-15T14:30:59.670Z,61.41
2022-09-15T14:31:59.792Z,61.61
2022-09-15T14:33:00.651Z,61.39
2022-09-15T14:34:00.586Z,60.28
2022-09-15T14:35:00.137Z,57.25
2022-09-15T14:35:59.545Z,58.64
2022-09-15T14:36:59.629Z,57.43
2022-09-15T14:37:59.454Z,58.74
2022-09-15T14:38:59.491Z,59.01
2022-09-15T14:40:00.401Z,57.50
2022-09-15T14:40:59.533Z,58.48
2022-09-15T14:43:00.454Z,56.64
2022-09-15T14:43:59.452Z,57.28
2022-09-15T14:46:06.942Z,56.92
2022-09-15T14:47:01.442Z,57.73
2022-09-15T14:47:59.518Z,58.41
2022-09-15T14:48:59.527Z,60.42
2022-09-15T14:49:59.363Z,59.07
2022-09-15T14:50:59.408Z,58.06
2022-09-15T14:51:59.465Z,57.03
2022-09-15T14:52:59.330Z,58.71
2022-09-15T14:53:59.365Z,56.60
2022-09-15T14:54:59.317Z,59.37
2022-09-15T14:56:01.269Z,59.67
2022-09-15T14:56:59.371Z,59.44
2022-09-15T14:57:59.344Z,61.08
2022-09-15T14:58:59.287Z,59.37
2022-09-15T14:59:59.398Z,59.90
2022-09-15T15:00:59.477Z,58.80
2022-09-15T15:01:59.352Z,59.20
2022-09-15T15:02:59.295Z,59.42
2022-09-15T15:03:59.279Z,60.10
2022-09-15T15:04:59.330Z,59.30
2022-09-15T15:06:02.625Z,58.09
2022-09-15T15:06:59.196Z,59.90
2022-09-15T15:07:59.211Z,57.38
2022-09-15T15:08:59.194Z,60.44
2022-09-15T15:09:59.255Z,61.14
2022-09-15T15:10:59.129Z,61.57
2022-09-15T15:12:00.120Z,59.76
2022-09-15T15:12:59.109Z,60.74
2022-09-15T15:13:59.149Z,61.77
2022-09-15T15:14:59.160Z,61.27
2022-09-15T15:15:59.319Z,62.08
2022-09-15T15:16:59.426Z,62.08
2022-09-15T15:17:59.201Z,61.27
2022-09-15T15:18:59.181Z,61.55
2022-09-15T15:19:59.643Z,61.27
2022-09-15T15:20:59.124Z,62.79
2022-09-15T15:21:59.463Z,62.48
2022-09-15T15:23:00.078Z,61.80
2022-09-15T15:23:59.232Z,62.11
2022-09-15T15:24:58.982Z,61.17
2022-09-15T15:25:59.006Z,59.96
2022-09-15T15:26:59.063Z,60.36
2022-09-15T15:27:59.034Z,60.36
2022-09-15T15:28:59.136Z,59.73
2022-09-15T15:29:58.988Z,59.96
2022-09-15T15:30:59.754Z,61.37
2022-09-15T15:31:59.023Z,60.46
2022-09-15T15:32:59.008Z,60.06
2022-09-15T15:33:58.943Z,61.47
2022-09-15T15:34:58.900Z,61.33
2022-09-15T15:35:58.946Z,61.40
2022-09-15T15:36:58.954Z,61.80
2022-09-15T15:37:58.886Z,63.22
2022-09-15T15:38:58.942Z,64.36
2022-09-15T15:39:59.133Z,63.35
2022-09-15T15:40:58.927Z,63.02
2022-09-15T15:41:59.008Z,61.94
2022-09-15T15:43:00.074Z,62.92
2022-09-15T15:43:58.970Z,63.96